Decoded Metar for LYKV (KRALJEVO/LADEVCI in SERBIA) (IATA:N/A) | Meteo·Mobile Aviation Weather
aviador You're here:

LYKV Decoded Metar

KRALJEVO/LADEVCI in SERBIA
Report Time2018-11-18 01:00:00
UTC Time2018-11-18 01:19:16
Flight Rules vfr VFR
Wind270° at 03 kt
W.Decomp.*RWY 32: 1.8 kt HW 2.4 kt LCW
W.Rank270° ranks 22
Current wind is below 270° avg. (3.7)
Visibility9999 m
Phenomena:N/A
Clouds:Broken 030 Hf
Expected CloudBase > 800 ft AGL from Temp-Dew spread
Ceiling3,000 ft
Temp01°C (ISA -13)
Dew Point-1°C (87% RH)
AAT-2.2°C
QNH1026 hPa
Density Alt-1,204 ft
Elevation694 ft
Report Wrong Elevation
Raw Report
METAR LYKV 180100Z 27003KT 9999 BKN030 01/M01 Q1026 NOSIG=

Extra information for LYKV:More info

Metar Taf Metar & Taf Last 4 Metars F.Rules Stats Wind Profile Meteogram Temp Stats Airport Information Weather charts Add Link Nearby VenuesMetar ALERT Operation Metar Decoded Social comments